Allouez, Wisconsin
Current Conditions -  °F | °C
As of 1:53 AM on Friday 31 Oct 2014 (Local Time) from KGRB Reporting Station
Overcast Overcast  
Wind Chill: 31°   Ceiling: 6500
Heat Index: 39°   Visibility: 10mi
Dew Point: 32°   Wind: 14mph
Humidity: 76%   Direction: 310°NW
Pressure: 30.04"   Gusts: NA
Location:  44.48°N, 88.02°W
Report Text: KGRB 310653Z AUTO 31012KT 10SM FEW025 BKN065 OVC100 04/00 A3004 RMK AO2 RAB42E53 SLP177 P0000 T00390000 $
Loading
Personal Weather Stations






























Interactive Weather Map
Tropical Storm Tracking
New forecast layout! Learn more

10-Day Weather Forecast

Advertisements
Track Severe Weather on mobile